createdAt,value
2022-11-10T00:00:30.945Z,99.90
2022-11-10T00:03:20.422Z,99.90
2022-11-10T00:06:32.259Z,99.80
2022-11-10T00:09:22.118Z,99.10
2022-11-10T00:12:35.704Z,99.50
2022-11-10T00:33:19.353Z,98.40
2022-11-10T00:36:48.166Z,98.40
2022-11-10T00:54:21.079Z,98.40
2022-11-10T00:57:29.930Z,98.40
2022-11-10T01:01:03.361Z,98.40
2022-11-10T01:03:54.026Z,98.40
2022-11-10T01:14:01.075Z,98.40
2022-11-10T01:17:35.760Z,98.40
2022-11-10T01:20:25.778Z,98.40
2022-11-10T01:23:35.324Z,98.40
2022-11-10T01:39:28.558Z,98.40
2022-11-10T01:43:00.039Z,98.40
2022-11-10T01:46:14.192Z,98.40
2022-11-10T02:02:55.486Z,98.40
2022-11-10T02:06:05.645Z,98.40
2022-11-10T02:08:56.430Z,98.40
2022-11-10T02:12:38.126Z,98.30
2022-11-10T02:16:20.627Z,98.40
2022-11-10T02:38:06.870Z,98.40
2022-11-10T02:41:18.536Z,98.40
2022-11-10T02:44:09.764Z,98.40
2022-11-10T02:47:21.534Z,98.40
2022-11-10T02:50:11.168Z,98.40
2022-11-10T02:53:46.269Z,98.50
2022-11-10T03:07:18.451Z,98.40
2022-11-10T03:10:31.855Z,98.40
2022-11-10T03:14:01.525Z,98.40
2022-11-10T03:17:12.004Z,98.40
2022-11-10T03:29:58.795Z,98.50
2022-11-10T03:36:29.888Z,98.40
2022-11-10T03:39:38.521Z,98.40
2022-11-10T03:42:57.157Z,98.40
2022-11-10T03:53:29.720Z,98.40
2022-11-10T03:56:18.653Z,98.40
2022-11-10T03:59:36.357Z,98.40
2022-11-10T04:14:09.000Z,98.50
2022-11-10T04:16:58.733Z,98.40
2022-11-10T04:20:39.208Z,98.40
2022-11-10T04:23:50.417Z,98.40
2022-11-10T04:42:41.315Z,98.40
2022-11-10T04:46:21.961Z,98.40
2022-11-10T04:49:53.056Z,98.40
2022-11-10T05:11:25.452Z,98.40
2022-11-10T05:14:14.391Z,98.40
2022-11-10T05:17:03.436Z,98.40
2022-11-10T05:20:12.063Z,98.40
2022-11-10T05:23:48.973Z,98.40
2022-11-10T05:26:38.865Z,98.40
2022-11-10T05:29:28.651Z,98.40
2022-11-10T05:49:34.233Z,98.60
2022-11-10T05:52:23.315Z,98.30
2022-11-10T05:55:53.998Z,98.30
2022-11-10T06:14:52.389Z,98.30
2022-11-10T06:18:30.110Z,98.30
2022-11-10T06:21:24.103Z,98.20
2022-11-10T06:24:33.980Z,98.30
2022-11-10T06:56:54.512Z,98.20
2022-11-10T07:00:06.936Z,98.20
2022-11-10T07:03:03.890Z,98.20
2022-11-10T07:06:16.199Z,98.30
2022-11-10T07:19:26.785Z,98.30
2022-11-10T07:22:35.811Z,98.30
2022-11-10T07:25:44.532Z,98.20
2022-11-10T07:29:31.039Z,98.30
2022-11-10T07:32:52.767Z,98.20
2022-11-10T07:35:44.184Z,98.30
2022-11-10T07:49:14.564Z,98.30
2022-11-10T07:52:03.444Z,98.60
2022-11-10T07:55:13.508Z,98.30
2022-11-10T07:58:03.109Z,98.30
2022-11-10T08:18:47.949Z,98.30
2022-11-10T08:22:25.793Z,98.30
2022-11-10T08:41:37.821Z,97.40
2022-11-10T08:44:28.085Z,97.10
2022-11-10T08:47:17.110Z,97.00
2022-11-10T08:50:07.042Z,97.00
2022-11-10T08:52:56.172Z,97.00
2022-11-10T08:55:46.809Z,97.00
2022-11-10T08:58:42.181Z,97.10
2022-11-10T09:01:36.224Z,97.10
2022-11-10T09:04:25.308Z,97.00
2022-11-10T09:07:14.816Z,97.00
2022-11-10T09:10:07.891Z,97.00
2022-11-10T09:13:00.358Z,97.10
2022-11-10T09:15:49.256Z,97.10
2022-11-10T09:18:38.632Z,97.10
2022-11-10T09:21:27.569Z,97.00
2022-11-10T09:24:16.366Z,97.10
2022-11-10T09:27:05.358Z,97.10
2022-11-10T09:29:54.284Z,97.10
2022-11-10T09:33:04.618Z,97.30
2022-11-10T09:35:58.695Z,97.40
2022-11-10T09:38:48.334Z,98.00
2022-11-10T09:41:42.624Z,98.10
2022-11-10T09:44:41.031Z,98.00
2022-11-10T09:48:19.678Z,98.00
2022-11-10T09:51:19.741Z,97.90
2022-11-10T09:54:46.456Z,97.80
2022-11-10T09:57:35.685Z,97.70
2022-11-10T10:00:25.137Z,97.60
2022-11-10T10:03:24.126Z,97.50
2022-11-10T10:06:16.412Z,97.40
2022-11-10T10:09:20.809Z,97.30
2022-11-10T10:12:30.856Z,97.20
2022-11-10T10:15:43.743Z,97.00
2022-11-10T10:19:19.122Z,97.00
2022-11-10T10:22:26.182Z,96.80
2022-11-10T10:25:28.424Z,96.80
2022-11-10T10:28:40.684Z,96.70
2022-11-10T10:31:42.720Z,96.60
2022-11-10T10:34:35.892Z,96.50
2022-11-10T10:37:26.830Z,96.50
2022-11-10T10:40:25.129Z,96.40
2022-11-10T10:43:15.037Z,96.40
2022-11-10T10:46:34.404Z,96.40
2022-11-10T10:49:30.852Z,96.50
2022-11-10T10:52:41.208Z,96.30
2022-11-10T10:55:31.865Z,96.20
2022-11-10T10:58:27.686Z,96.20
2022-11-10T11:01:19.571Z,96.20
2022-11-10T11:04:30.178Z,96.10
2022-11-10T11:07:27.496Z,96.10
2022-11-10T11:10:35.156Z,96.00
2022-11-10T11:13:29.473Z,96.00
2022-11-10T11:16:18.752Z,96.00
2022-11-10T11:19:10.220Z,96.00
2022-11-10T11:22:45.226Z,95.90
2022-11-10T11:25:36.894Z,96.00
2022-11-10T11:28:42.916Z,96.00
2022-11-10T11:31:56.439Z,95.90
2022-11-10T11:35:21.705Z,95.80
2022-11-10T11:38:10.400Z,95.90
2022-11-10T11:41:13.426Z,95.80
2022-11-10T11:44:23.157Z,95.80
2022-11-10T11:47:20.518Z,95.70
2022-11-10T11:50:37.157Z,95.70
2022-11-10T11:53:34.895Z,95.60
2022-11-10T11:56:36.192Z,96.00
2022-11-10T11:59:48.027Z,95.60
2022-11-10T12:02:55.127Z,95.60
2022-11-10T12:06:05.393Z,95.60
2022-11-10T12:09:18.776Z,95.50
2022-11-10T12:12:31.874Z,95.50
2022-11-10T12:15:36.582Z,95.50
2022-11-10T12:18:33.828Z,95.40
2022-11-10T12:21:32.846Z,95.50
2022-11-10T12:24:46.712Z,95.40
2022-11-10T12:27:47.030Z,95.40
2022-11-10T12:30:38.109Z,95.30
2022-11-10T12:33:33.259Z,95.30
2022-11-10T12:36:23.872Z,95.30
2022-11-10T12:39:42.089Z,95.30
2022-11-10T12:42:35.320Z,95.30
2022-11-10T12:45:33.782Z,95.30
2022-11-10T12:48:24.341Z,95.20
2022-11-10T12:51:25.579Z,95.20
2022-11-10T12:54:17.617Z,95.20
2022-11-10T12:57:21.269Z,95.20
2022-11-10T13:00:28.763Z,95.20
2022-11-10T13:03:34.504Z,95.10
2022-11-10T13:06:37.427Z,95.00
2022-11-10T13:09:46.840Z,95.00
2022-11-10T13:12:36.230Z,95.00
2022-11-10T13:15:40.425Z,95.00
2022-11-10T13:18:35.864Z,95.00
2022-11-10T13:25:33.803Z,94.90
2022-11-10T13:28:50.456Z,94.90
2022-11-10T13:31:51.192Z,94.90
2022-11-10T13:35:10.283Z,94.90
2022-11-10T13:38:03.135Z,94.80
2022-11-10T13:41:12.299Z,95.20
2022-11-10T13:44:07.005Z,94.80
2022-11-10T13:47:11.723Z,94.80
2022-11-10T13:50:29.658Z,94.80
2022-11-10T13:53:36.719Z,94.70
2022-11-10T13:56:37.679Z,94.70
2022-11-10T13:59:33.373Z,94.70
2022-11-10T14:02:42.802Z,94.70
2022-11-10T14:05:33.329Z,94.70
2022-11-10T14:08:26.707Z,94.70
2022-11-10T14:11:36.695Z,94.60
2022-11-10T14:14:54.372Z,94.60
2022-11-10T14:18:05.613Z,94.60
2022-11-10T14:21:01.360Z,94.60
2022-11-10T14:24:05.179Z,94.60
2022-11-10T14:26:57.074Z,94.50
2022-11-10T14:29:46.384Z,94.60
2022-11-10T14:32:36.260Z,94.60
2022-11-10T14:35:31.329Z,94.60
2022-11-10T14:38:32.632Z,94.50
2022-11-10T14:41:27.864Z,94.50
2022-11-10T14:44:25.039Z,94.50
2022-11-10T14:47:33.589Z,94.40
2022-11-10T14:50:37.339Z,94.50
2022-11-10T14:53:40.215Z,94.40
2022-11-10T14:56:31.780Z,94.50
2022-11-10T14:59:23.225Z,94.50
2022-11-10T15:02:17.760Z,94.40
2022-11-10T15:05:07.583Z,94.40
2022-11-10T15:07:59.674Z,94.40
2022-11-10T15:10:54.610Z,94.40
2022-11-10T15:13:44.281Z,94.40
2022-11-10T15:16:37.634Z,94.40
2022-11-10T15:22:41.519Z,94.30
2022-11-10T15:25:39.994Z,94.30
2022-11-10T15:28:49.495Z,94.30
2022-11-10T15:31:44.821Z,94.30
2022-11-10T15:34:45.874Z,94.40
2022-11-10T15:37:35.961Z,94.30
2022-11-10T15:40:32.723Z,94.30
2022-11-10T15:43:25.204Z,94.30
2022-11-10T15:46:26.564Z,94.30
2022-11-10T15:49:29.084Z,94.30
2022-11-10T15:52:27.284Z,94.40
2022-11-10T15:55:26.383Z,94.30
2022-11-10T15:58:23.824Z,94.30
2022-11-10T16:01:17.272Z,94.30
2022-11-10T16:04:07.170Z,94.30
2022-11-10T16:07:16.006Z,94.30
2022-11-10T16:10:05.728Z,94.40
2022-11-10T16:12:54.640Z,94.20
2022-11-10T16:15:44.281Z,94.40
2022-11-10T16:18:34.326Z,94.70
2022-11-10T16:21:26.404Z,94.70
2022-11-10T16:24:15.301Z,94.40
2022-11-10T16:27:06.974Z,95.10
2022-11-10T16:29:56.086Z,94.50
2022-11-10T16:32:46.216Z,94.60
2022-11-10T16:35:35.117Z,95.20
2022-11-10T16:38:26.618Z,95.10
2022-11-10T16:41:16.378Z,94.80
2022-11-10T16:44:05.617Z,95.00
2022-11-10T16:50:00.301Z,94.80
2022-11-10T16:52:49.467Z,95.30
2022-11-10T16:55:38.378Z,94.80
2022-11-10T16:58:29.468Z,95.00
2022-11-10T17:01:27.700Z,94.60
2022-11-10T17:04:17.385Z,94.50
2022-11-10T17:07:12.014Z,95.40
2022-11-10T17:10:03.048Z,95.10
2022-11-10T17:13:12.031Z,94.60
2022-11-10T17:16:31.405Z,94.70
2022-11-10T17:19:47.269Z,94.30
2022-11-10T17:22:37.889Z,95.20
2022-11-10T17:25:34.993Z,95.10
2022-11-10T17:28:24.080Z,95.50
2022-11-10T17:34:16.728Z,95.70
2022-11-10T17:37:06.064Z,94.40
2022-11-10T17:40:24.844Z,94.40
2022-11-10T17:43:15.490Z,94.00
2022-11-10T17:46:04.500Z,94.90
2022-11-10T17:49:01.632Z,94.40
2022-11-10T17:51:51.842Z,94.40
2022-11-10T17:54:41.175Z,94.50
2022-11-10T17:57:30.330Z,94.20
2022-11-10T18:00:20.297Z,94.10
2022-11-10T18:03:14.131Z,93.90
2022-11-10T18:06:06.779Z,94.20
2022-11-10T18:08:59.476Z,94.70
2022-11-10T18:11:51.427Z,94.50
2022-11-10T18:14:40.090Z,94.00
2022-11-10T18:17:29.864Z,94.70
2022-11-10T18:20:19.259Z,93.90
2022-11-10T18:23:10.963Z,94.10
2022-11-10T18:26:06.481Z,94.70
2022-11-10T18:28:55.792Z,95.40
2022-11-10T18:31:44.909Z,94.40
2022-11-10T18:34:33.723Z,94.30
2022-11-10T18:37:22.860Z,94.40
2022-11-10T18:40:31.808Z,94.20
2022-11-10T18:43:40.460Z,94.70
2022-11-10T18:46:35.300Z,94.20
2022-11-10T18:49:23.476Z,94.10
2022-11-10T18:52:12.955Z,94.00
2022-11-10T18:55:01.930Z,94.00
2022-11-10T18:57:50.803Z,94.20
2022-11-10T19:03:44.123Z,94.10
2022-11-10T19:06:33.630Z,94.80
2022-11-10T19:09:22.935Z,94.10
2022-11-10T19:12:12.164Z,94.40
2022-11-10T19:15:00.964Z,93.90
2022-11-10T19:17:49.771Z,94.00
2022-11-10T19:20:41.640Z,94.10
2022-11-10T19:23:55.536Z,94.00
2022-11-10T19:26:46.500Z,94.30
2022-11-10T19:29:35.875Z,93.80
2022-11-10T19:32:25.156Z,94.20
2022-11-10T19:35:14.763Z,94.70
2022-11-10T19:38:03.654Z,94.00
2022-11-10T19:40:52.833Z,94.00
2022-11-10T19:43:47.156Z,93.90
2022-11-10T19:46:38.293Z,94.10
2022-11-10T19:49:47.779Z,93.90
2022-11-10T19:52:36.549Z,94.10
2022-11-10T19:55:25.410Z,93.90
2022-11-10T19:58:14.329Z,93.90
2022-11-10T20:01:22.811Z,93.90
2022-11-10T20:04:13.923Z,94.10
2022-11-10T20:07:22.101Z,94.40
2022-11-10T20:10:11.226Z,94.10
2022-11-10T20:12:59.973Z,93.90
2022-11-10T20:15:48.647Z,94.10
2022-11-10T20:18:38.900Z,94.10
2022-11-10T20:21:27.550Z,94.10
2022-11-10T20:24:16.563Z,93.90
2022-11-10T20:27:05.323Z,93.80
2022-11-10T20:29:54.118Z,94.60
2022-11-10T20:32:48.995Z,94.40
2022-11-10T20:35:45.785Z,93.90
2022-11-10T20:38:34.681Z,93.90
2022-11-10T20:41:26.894Z,94.00
2022-11-10T20:44:16.237Z,94.00
2022-11-10T20:47:05.880Z,94.00
2022-11-10T20:49:54.996Z,94.00
2022-11-10T20:52:47.486Z,94.00
2022-11-10T20:55:55.414Z,93.80
2022-11-10T20:58:46.514Z,93.90
2022-11-10T21:01:35.574Z,94.20
2022-11-10T21:04:25.376Z,93.80
2022-11-10T21:07:14.920Z,93.90
2022-11-10T21:10:04.281Z,94.00
2022-11-10T21:12:53.429Z,94.30
2022-11-10T21:15:42.951Z,93.90
2022-11-10T21:18:37.753Z,93.80
2022-11-10T21:21:49.242Z,93.90
2022-11-10T21:24:38.187Z,93.80
2022-11-10T21:27:27.335Z,93.90
2022-11-10T21:30:24.258Z,93.90
2022-11-10T21:33:13.711Z,94.00
2022-11-10T21:36:08.124Z,93.80
2022-11-10T21:38:57.528Z,93.90
2022-11-10T21:41:46.162Z,94.00
2022-11-10T21:44:34.852Z,93.80
2022-11-10T21:47:23.573Z,94.00
2022-11-10T21:50:12.785Z,93.90
2022-11-10T21:53:01.758Z,93.90
2022-11-10T21:55:50.890Z,93.90
2022-11-10T21:58:40.688Z,93.90
2022-11-10T22:01:32.846Z,93.70
2022-11-10T22:04:21.822Z,93.70
2022-11-10T22:07:26.720Z,93.80
2022-11-10T22:10:33.887Z,94.00
2022-11-10T22:13:40.898Z,93.90
2022-11-10T22:16:58.697Z,94.10
2022-11-10T22:19:47.957Z,94.00
2022-11-10T22:22:59.338Z,93.90
2022-11-10T22:25:48.478Z,93.80
2022-11-10T22:28:37.289Z,93.70
2022-11-10T22:31:26.521Z,93.80
2022-11-10T22:34:15.466Z,93.80
2022-11-10T22:37:04.235Z,93.70
2022-11-10T22:40:11.103Z,93.60
2022-11-10T22:43:17.634Z,93.60
2022-11-10T22:46:06.217Z,94.30
2022-11-10T22:48:55.597Z,93.90
2022-11-10T22:51:47.292Z,93.70
2022-11-10T22:54:36.292Z,93.50
2022-11-10T22:57:25.325Z,93.80
2022-11-10T23:00:15.200Z,94.40
2022-11-10T23:03:04.353Z,94.80
2022-11-10T23:05:56.561Z,93.90
2022-11-10T23:08:46.656Z,94.60
2022-11-10T23:11:35.845Z,93.80
2022-11-10T23:14:25.090Z,93.50
2022-11-10T23:17:13.840Z,93.50
2022-11-10T23:20:02.668Z,93.70
2022-11-10T23:22:51.734Z,93.60
2022-11-10T23:25:40.964Z,93.60
2022-11-10T23:28:31.779Z,93.60
2022-11-10T23:31:26.578Z,94.40
2022-11-10T23:34:15.670Z,94.60
2022-11-10T23:37:04.838Z,93.70
2022-11-10T23:39:53.659Z,94.00
2022-11-10T23:42:42.989Z,93.50
2022-11-10T23:45:52.963Z,93.80
2022-11-10T23:48:42.280Z,93.50
2022-11-10T23:51:31.334Z,93.50
2022-11-10T23:54:21.236Z,93.30
2022-11-10T23:57:10.079Z,93.30
2022-11-10T23:59:59.050Z,93.20
